createdAt,value
2022-11-02T00:00:45.416Z,12.50
2022-11-02T00:03:13.980Z,12.50
2022-11-02T00:05:42.512Z,12.50
2022-11-02T00:08:10.668Z,12.50
2022-11-02T00:10:37.918Z,12.60
2022-11-02T00:13:05.980Z,12.50
2022-11-02T00:15:36.241Z,12.50
2022-11-02T00:18:11.395Z,12.50
2022-11-02T00:20:41.841Z,12.50
2022-11-02T00:23:12.363Z,12.50
2022-11-02T00:25:47.906Z,12.40
2022-11-02T00:28:16.194Z,12.40
2022-11-02T00:30:44.327Z,12.40
2022-11-02T00:33:11.982Z,12.40
2022-11-02T00:35:40.389Z,12.40
2022-11-02T00:38:07.880Z,12.30
2022-11-02T00:40:35.274Z,12.30
2022-11-02T00:43:02.603Z,12.30
2022-11-02T00:45:29.839Z,12.30
2022-11-02T00:47:57.079Z,12.30
2022-11-02T00:50:24.428Z,12.20
2022-11-02T00:52:51.778Z,12.30
2022-11-02T00:55:19.105Z,12.20
2022-11-02T00:57:46.355Z,12.20
2022-11-02T01:00:15.087Z,12.10
2022-11-02T01:02:43.205Z,12.10
2022-11-02T01:05:11.639Z,12.20
2022-11-02T01:07:39.787Z,12.20
2022-11-02T01:10:10.412Z,12.20
2022-11-02T01:12:40.312Z,12.20
2022-11-02T01:15:10.525Z,12.30
2022-11-02T01:17:39.629Z,12.20
2022-11-02T01:20:08.350Z,12.30
2022-11-02T01:22:35.938Z,12.30
2022-11-02T01:25:04.251Z,12.30
2022-11-02T01:27:32.164Z,12.30
2022-11-02T01:29:59.521Z,12.30
2022-11-02T01:32:30.825Z,12.30
2022-11-02T01:34:58.126Z,12.30
2022-11-02T01:37:25.319Z,12.30
2022-11-02T01:39:52.475Z,12.30
2022-11-02T01:42:24.108Z,12.20
2022-11-02T01:44:52.317Z,12.20
2022-11-02T01:47:37.907Z,12.20
2022-11-02T01:50:27.153Z,12.20
2022-11-02T01:52:54.927Z,12.20
2022-11-02T01:55:31.121Z,12.20
2022-11-02T01:58:09.759Z,12.20
2022-11-02T02:00:38.764Z,12.20
2022-11-02T02:03:18.255Z,12.20
2022-11-02T02:06:00.922Z,12.20
2022-11-02T02:08:30.134Z,12.20
2022-11-02T02:10:58.942Z,12.30
2022-11-02T02:13:28.660Z,12.30
2022-11-02T02:16:19.951Z,12.30
2022-11-02T02:18:56.788Z,12.30
2022-11-02T02:21:59.025Z,12.30
2022-11-02T02:24:48.868Z,12.40
2022-11-02T02:27:55.598Z,12.40
2022-11-02T02:30:23.558Z,12.40
2022-11-02T02:33:10.571Z,12.40
2022-11-02T02:35:49.555Z,12.40
2022-11-02T02:38:51.787Z,12.50
2022-11-02T02:42:08.099Z,12.50
2022-11-02T02:44:40.613Z,12.50
2022-11-02T02:47:21.404Z,12.50
2022-11-02T02:50:02.785Z,12.50
2022-11-02T02:52:34.809Z,12.60
2022-11-02T02:55:05.780Z,12.60
2022-11-02T02:57:35.888Z,12.70
2022-11-02T03:00:05.170Z,12.70
2022-11-02T03:02:37.223Z,12.70
2022-11-02T03:05:24.569Z,12.70
2022-11-02T03:07:53.651Z,12.70
2022-11-02T03:10:29.904Z,12.70
2022-11-02T03:13:36.602Z,12.80
2022-11-02T03:16:30.470Z,12.80
2022-11-02T03:19:16.812Z,12.80
2022-11-02T03:21:59.266Z,12.90
2022-11-02T03:24:47.439Z,12.80
2022-11-02T03:27:55.353Z,12.90
2022-11-02T03:30:26.387Z,13.00
2022-11-02T03:33:21.571Z,13.00
2022-11-02T03:36:23.893Z,13.00
2022-11-02T03:38:59.542Z,13.10
2022-11-02T03:41:29.337Z,13.10
2022-11-02T03:44:06.655Z,13.10
2022-11-02T03:46:39.157Z,13.10
2022-11-02T03:49:13.580Z,13.10
2022-11-02T03:51:46.034Z,13.20
2022-11-02T03:54:32.878Z,13.20
2022-11-02T03:57:07.665Z,13.20
2022-11-02T03:59:35.050Z,13.20
2022-11-02T04:02:02.751Z,13.20
2022-11-02T04:04:30.095Z,13.30
2022-11-02T04:06:57.529Z,13.30
2022-11-02T04:09:26.060Z,13.30
2022-11-02T04:12:11.811Z,13.30
2022-11-02T04:14:39.094Z,13.40
2022-11-02T04:17:28.971Z,13.40
2022-11-02T04:19:57.244Z,13.40
2022-11-02T04:22:43.237Z,13.40
2022-11-02T04:25:21.004Z,13.40
2022-11-02T04:27:53.536Z,13.40
2022-11-02T04:30:23.262Z,13.40
2022-11-02T04:33:10.443Z,13.50
2022-11-02T04:35:38.106Z,13.50
2022-11-02T04:38:25.384Z,13.50
2022-11-02T04:41:12.481Z,13.50
2022-11-02T04:43:39.676Z,13.50
2022-11-02T04:46:06.926Z,13.50
2022-11-02T04:48:35.006Z,13.50
2022-11-02T04:51:02.499Z,13.60
2022-11-02T04:53:31.074Z,13.50
2022-11-02T04:55:58.221Z,13.50
2022-11-02T04:58:26.107Z,13.60
2022-11-02T05:00:53.537Z,13.50
2022-11-02T05:03:20.917Z,13.50
2022-11-02T05:05:48.144Z,13.50
2022-11-02T05:08:15.419Z,13.50
2022-11-02T05:10:42.707Z,13.50
2022-11-02T05:13:10.954Z,13.60
2022-11-02T05:15:41.329Z,13.60
2022-11-02T05:18:08.976Z,13.60
2022-11-02T05:20:36.398Z,13.60
2022-11-02T05:23:03.925Z,13.70
2022-11-02T05:25:31.438Z,13.70
2022-11-02T05:27:59.039Z,13.70
2022-11-02T05:30:26.383Z,13.70
2022-11-02T05:32:57.800Z,13.80
2022-11-02T05:35:26.385Z,13.80
2022-11-02T05:37:55.994Z,13.80
2022-11-02T05:40:23.666Z,13.90
2022-11-02T05:42:52.282Z,13.90
2022-11-02T05:45:22.158Z,13.90
2022-11-02T05:47:51.926Z,13.90
2022-11-02T05:50:20.753Z,13.90
2022-11-02T05:52:48.270Z,13.90
2022-11-02T05:55:15.985Z,13.90
2022-11-02T05:57:43.269Z,13.90
2022-11-02T06:00:12.664Z,13.90
2022-11-02T06:02:40.041Z,14.00
2022-11-02T06:05:07.983Z,13.90
2022-11-02T06:07:35.430Z,14.00
2022-11-02T06:10:03.217Z,14.00
2022-11-02T06:12:30.394Z,14.10
2022-11-02T06:14:57.636Z,14.10
2022-11-02T06:17:24.953Z,14.10
2022-11-02T06:19:52.284Z,14.20
2022-11-02T06:22:19.594Z,14.20
2022-11-02T06:24:46.810Z,14.20
2022-11-02T06:27:14.113Z,14.20
2022-11-02T06:29:41.304Z,14.20
2022-11-02T06:32:10.875Z,14.20
2022-11-02T06:34:39.184Z,14.20
2022-11-02T06:37:06.351Z,14.20
2022-11-02T06:39:33.817Z,14.20
2022-11-02T06:42:01.036Z,14.20
2022-11-02T06:44:28.378Z,14.20
2022-11-02T06:46:58.392Z,14.20
2022-11-02T06:49:26.894Z,14.20
2022-11-02T06:51:54.254Z,14.20
2022-11-02T06:54:21.505Z,14.20
2022-11-02T06:56:48.833Z,14.20
2022-11-02T06:59:16.222Z,14.20
2022-11-02T07:01:44.524Z,14.20
2022-11-02T07:04:11.929Z,14.20
2022-11-02T07:06:39.116Z,14.20
2022-11-02T07:09:08.791Z,14.20
2022-11-02T07:11:35.990Z,14.20
2022-11-02T07:14:03.194Z,14.30
2022-11-02T07:16:30.607Z,14.40
2022-11-02T07:18:58.094Z,14.40
2022-11-02T07:21:25.650Z,14.50
2022-11-02T07:23:53.135Z,14.50
2022-11-02T07:26:20.578Z,14.60
2022-11-02T07:28:48.349Z,14.60
2022-11-02T07:31:17.614Z,14.60
2022-11-02T07:33:45.040Z,14.70
2022-11-02T07:36:15.130Z,14.80
2022-11-02T07:38:43.025Z,14.80
2022-11-02T07:41:10.444Z,14.90
2022-11-02T07:43:41.329Z,14.90
2022-11-02T07:46:11.746Z,15.00
2022-11-02T07:48:39.068Z,15.10
2022-11-02T07:51:07.832Z,15.10
2022-11-02T07:53:35.320Z,15.20
2022-11-02T07:56:06.679Z,15.20
2022-11-02T07:58:34.347Z,15.30
2022-11-02T08:01:02.581Z,15.30
2022-11-02T08:03:30.618Z,15.40
2022-11-02T08:06:04.921Z,15.50
2022-11-02T08:08:32.271Z,15.50
2022-11-02T08:11:12.657Z,15.60
2022-11-02T08:17:05.097Z,15.60
2022-11-02T08:19:33.984Z,15.70
2022-11-02T08:22:01.198Z,15.70
2022-11-02T08:24:29.599Z,15.80
2022-11-02T08:26:56.855Z,15.80
2022-11-02T08:29:24.138Z,15.80
2022-11-02T08:31:51.488Z,15.90
2022-11-02T08:34:20.772Z,15.90
2022-11-02T08:36:48.023Z,15.90
2022-11-02T08:39:19.167Z,16.00
2022-11-02T08:41:46.832Z,16.00
2022-11-02T08:44:15.305Z,16.00
2022-11-02T08:46:42.476Z,16.10
2022-11-02T08:49:10.597Z,16.20
2022-11-02T08:51:39.027Z,16.20
2022-11-02T08:54:06.578Z,16.30
2022-11-02T08:56:36.428Z,16.40
2022-11-02T08:59:11.243Z,16.50
2022-11-02T09:01:43.913Z,16.50
2022-11-02T09:04:21.939Z,16.60
2022-11-02T09:07:04.071Z,16.70
2022-11-02T09:09:34.887Z,16.80
2022-11-02T09:12:08.779Z,16.90
2022-11-02T09:14:38.596Z,17.00
2022-11-02T09:17:06.086Z,17.10
2022-11-02T09:19:39.309Z,17.20
2022-11-02T09:22:07.315Z,17.20
2022-11-02T09:24:40.395Z,17.30
2022-11-02T09:27:14.099Z,17.40
2022-11-02T09:29:41.254Z,17.50
2022-11-02T09:32:08.394Z,17.50
2022-11-02T09:34:35.543Z,17.70
2022-11-02T09:37:03.459Z,17.70
2022-11-02T09:39:31.242Z,17.80
2022-11-02T09:42:15.945Z,17.90
2022-11-02T09:44:50.539Z,17.90
2022-11-02T09:50:16.126Z,18.10
2022-11-02T09:52:46.118Z,18.20
2022-11-02T09:55:23.291Z,18.30
2022-11-02T09:58:08.292Z,18.30
2022-11-02T10:01:02.045Z,18.30
2022-11-02T10:04:09.289Z,18.50
2022-11-02T10:07:12.586Z,18.50
2022-11-02T10:09:45.005Z,18.60
2022-11-02T10:12:31.139Z,18.60
2022-11-02T10:15:10.044Z,18.70
2022-11-02T10:17:46.301Z,18.80
2022-11-02T10:20:39.086Z,18.80
2022-11-02T10:23:11.488Z,18.80
2022-11-02T10:25:38.633Z,18.90
2022-11-02T10:28:15.892Z,18.90
2022-11-02T10:30:44.760Z,18.90
2022-11-02T10:33:18.271Z,19.00
2022-11-02T10:36:22.402Z,19.10
2022-11-02T10:39:02.037Z,19.10
2022-11-02T10:41:43.928Z,19.10
2022-11-02T10:44:47.013Z,19.20
2022-11-02T10:47:25.678Z,19.30
2022-11-02T10:50:34.747Z,19.30
2022-11-02T10:53:27.325Z,19.30
2022-11-02T10:56:05.353Z,19.30
2022-11-02T10:58:34.045Z,19.30
2022-11-02T11:01:10.859Z,19.40
2022-11-02T11:04:05.662Z,19.30
2022-11-02T11:06:46.454Z,19.40
2022-11-02T11:09:22.814Z,19.40
2022-11-02T11:11:53.072Z,19.40
2022-11-02T11:20:39.993Z,19.30
2022-11-02T11:23:09.523Z,19.30
2022-11-02T11:25:38.597Z,19.20
2022-11-02T11:28:26.035Z,19.20
2022-11-02T11:31:05.550Z,19.20
2022-11-02T11:33:42.797Z,19.20
2022-11-02T11:36:12.086Z,19.20
2022-11-02T11:38:47.866Z,19.30
2022-11-02T11:41:15.628Z,19.40
2022-11-02T11:43:45.334Z,19.50
2022-11-02T11:46:14.156Z,19.50
2022-11-02T11:48:59.701Z,19.50
2022-11-02T11:51:30.250Z,19.60
2022-11-02T11:54:13.635Z,19.60
2022-11-02T11:56:40.906Z,19.60
2022-11-02T11:59:43.288Z,19.60
2022-11-02T12:02:29.544Z,19.60
2022-11-02T12:05:18.152Z,19.50
2022-11-02T12:08:18.503Z,19.50
2022-11-02T12:10:53.839Z,19.50
2022-11-02T12:14:02.853Z,19.50
2022-11-02T12:17:10.910Z,19.60
2022-11-02T12:19:50.596Z,19.60
2022-11-02T12:22:45.017Z,19.70
2022-11-02T12:25:30.502Z,19.70
2022-11-02T12:28:14.570Z,19.80
2022-11-02T12:31:17.406Z,19.80
2022-11-02T12:33:59.823Z,19.90
2022-11-02T12:36:32.684Z,19.90
2022-11-02T12:39:22.265Z,20.00
2022-11-02T12:41:55.015Z,20.10
2022-11-02T12:44:41.491Z,20.20
2022-11-02T12:48:00.004Z,20.20
2022-11-02T12:50:54.246Z,20.20
2022-11-02T12:53:35.448Z,20.30
2022-11-02T12:56:06.797Z,20.30
2022-11-02T12:58:37.461Z,20.20
2022-11-02T13:01:13.641Z,20.10
2022-11-02T13:03:49.799Z,20.10
2022-11-02T13:06:22.311Z,20.10
2022-11-02T13:08:56.941Z,20.10
2022-11-02T13:11:31.321Z,20.10
2022-11-02T13:14:06.107Z,20.10
2022-11-02T13:16:41.429Z,20.00
2022-11-02T13:19:27.136Z,20.00
2022-11-02T13:21:59.825Z,20.00
2022-11-02T13:24:47.764Z,19.90
2022-11-02T13:27:38.520Z,19.90
2022-11-02T13:30:14.447Z,19.90
2022-11-02T13:32:46.781Z,19.80
2022-11-02T13:35:24.069Z,19.80
2022-11-02T13:38:06.436Z,19.80
2022-11-02T13:40:43.670Z,19.70
2022-11-02T13:43:28.937Z,19.70
2022-11-02T13:46:15.023Z,19.70
2022-11-02T13:48:56.524Z,19.70
2022-11-02T13:51:38.062Z,19.70
2022-11-02T13:54:14.878Z,19.70
2022-11-02T13:56:43.617Z,19.60
2022-11-02T13:59:22.245Z,19.60
2022-11-02T14:01:53.633Z,19.60
2022-11-02T14:04:21.731Z,19.50
2022-11-02T14:06:54.194Z,19.50
2022-11-02T14:09:30.422Z,19.40
2022-11-02T14:12:32.727Z,19.40
2022-11-02T14:15:15.461Z,19.30
2022-11-02T14:17:55.822Z,19.20
2022-11-02T14:20:46.788Z,19.20
2022-11-02T14:23:18.984Z,19.10
2022-11-02T14:25:46.112Z,19.10
2022-11-02T14:28:30.101Z,19.00
2022-11-02T14:31:03.449Z,18.90
2022-11-02T14:33:49.005Z,18.90
2022-11-02T14:36:16.028Z,18.80
2022-11-02T14:41:47.611Z,18.70
2022-11-02T14:44:57.634Z,18.70
2022-11-02T14:47:32.170Z,18.70
2022-11-02T14:50:19.529Z,18.60
2022-11-02T14:53:20.319Z,18.60
2022-11-02T14:55:54.681Z,18.50
2022-11-02T14:58:27.825Z,18.50
2022-11-02T15:00:59.936Z,18.40
2022-11-02T15:03:29.678Z,18.30
2022-11-02T15:06:06.719Z,18.30
2022-11-02T15:08:36.833Z,18.20
2022-11-02T15:11:42.875Z,18.20
2022-11-02T15:14:33.179Z,18.10
2022-11-02T15:17:00.429Z,18.00
2022-11-02T15:20:15.194Z,17.90
2022-11-02T15:23:28.500Z,17.80
2022-11-02T15:25:59.251Z,17.70
2022-11-02T15:28:29.839Z,17.60
2022-11-02T15:31:01.881Z,17.60
2022-11-02T15:33:39.455Z,17.50
2022-11-02T15:36:09.331Z,17.40
2022-11-02T15:38:40.331Z,17.40
2022-11-02T15:41:25.901Z,17.30
2022-11-02T15:44:19.080Z,17.30
2022-11-02T15:47:00.661Z,17.20
2022-11-02T15:49:58.773Z,17.10
2022-11-02T15:53:16.449Z,17.00
2022-11-02T15:56:05.434Z,17.00
2022-11-02T15:59:00.508Z,16.90
2022-11-02T16:01:28.690Z,16.80
2022-11-02T16:04:00.780Z,16.70
2022-11-02T16:06:40.895Z,16.60
2022-11-02T16:09:39.263Z,16.60
2022-11-02T16:12:17.006Z,16.50
2022-11-02T16:14:50.826Z,16.40
2022-11-02T16:17:29.572Z,16.40
2022-11-02T16:20:19.049Z,16.30
2022-11-02T16:23:07.372Z,16.30
2022-11-02T16:25:47.844Z,16.20
2022-11-02T16:28:29.768Z,16.10
2022-11-02T16:31:08.078Z,16.10
2022-11-02T16:33:51.584Z,16.00
2022-11-02T16:36:24.724Z,15.90
2022-11-02T16:38:58.368Z,15.80
2022-11-02T16:41:30.432Z,15.70
2022-11-02T16:44:01.379Z,15.70
2022-11-02T16:51:16.705Z,15.50
2022-11-02T16:53:44.614Z,15.40
2022-11-02T16:56:31.206Z,15.40
2022-11-02T16:59:01.490Z,15.30
2022-11-02T17:01:37.580Z,15.20
2022-11-02T17:04:21.121Z,15.20
2022-11-02T17:06:51.200Z,15.10
2022-11-02T17:09:30.268Z,15.10
2022-11-02T17:12:06.645Z,15.10
2022-11-02T17:14:34.064Z,15.00
2022-11-02T17:17:01.566Z,14.90
2022-11-02T17:19:41.252Z,14.90
2022-11-02T17:22:13.581Z,14.80
2022-11-02T17:24:40.993Z,14.80
2022-11-02T17:27:28.845Z,14.70
2022-11-02T17:29:58.600Z,14.70
2022-11-02T17:32:26.503Z,14.60
2022-11-02T17:34:56.205Z,14.60
2022-11-02T17:37:29.293Z,14.60
2022-11-02T17:39:59.967Z,14.50
2022-11-02T17:42:48.024Z,14.50
2022-11-02T17:45:22.893Z,14.40
2022-11-02T17:47:50.524Z,14.40
2022-11-02T17:50:19.404Z,14.40
2022-11-02T17:52:49.204Z,14.30
2022-11-02T17:55:23.906Z,14.30
2022-11-02T17:57:51.325Z,14.30
2022-11-02T18:00:19.059Z,14.20
2022-11-02T18:02:58.146Z,14.20
2022-11-02T18:05:30.937Z,14.20
2022-11-02T18:08:00.238Z,14.10
2022-11-02T18:10:31.727Z,14.00
2022-11-02T18:12:59.238Z,14.00
2022-11-02T18:15:31.090Z,14.00
2022-11-02T18:18:02.320Z,13.90
2022-11-02T18:20:31.261Z,13.90
2022-11-02T18:23:01.378Z,13.90
2022-11-02T18:25:30.692Z,13.90
2022-11-02T18:27:59.612Z,13.80
2022-11-02T18:30:28.433Z,13.80
2022-11-02T18:32:57.078Z,13.80
2022-11-02T18:35:24.772Z,13.70
2022-11-02T18:37:52.113Z,13.70
2022-11-02T18:40:20.506Z,13.70
2022-11-02T18:42:47.838Z,13.70
2022-11-02T18:45:15.727Z,13.70
2022-11-02T18:47:44.605Z,13.70
2022-11-02T18:50:14.049Z,13.70
2022-11-02T18:52:45.644Z,13.60
2022-11-02T18:55:13.499Z,13.60
2022-11-02T18:57:43.234Z,13.60
2022-11-02T19:00:12.806Z,13.60
2022-11-02T19:02:43.157Z,13.60
2022-11-02T19:05:30.683Z,13.50
2022-11-02T19:08:19.871Z,13.50
2022-11-02T19:10:51.377Z,13.50
2022-11-02T19:13:22.252Z,13.50
2022-11-02T19:15:54.992Z,13.50
2022-11-02T19:18:24.006Z,13.50
2022-11-02T19:20:54.108Z,13.50
2022-11-02T19:23:22.430Z,13.50
2022-11-02T19:25:53.868Z,13.50
2022-11-02T19:28:22.501Z,13.50
2022-11-02T19:30:49.656Z,13.60
2022-11-02T19:33:21.296Z,13.60
2022-11-02T19:35:57.662Z,13.60
2022-11-02T19:38:27.174Z,13.70
2022-11-02T19:41:05.881Z,13.70
2022-11-02T19:43:40.766Z,13.70
2022-11-02T19:46:14.205Z,13.70
2022-11-02T19:48:45.774Z,13.70
2022-11-02T19:51:20.152Z,13.70
2022-11-02T19:53:56.640Z,13.70
2022-11-02T19:56:27.987Z,13.70
2022-11-02T19:58:58.641Z,13.70
2022-11-02T20:01:39.328Z,13.80
2022-11-02T20:04:14.255Z,13.70
2022-11-02T20:06:50.307Z,13.80
2022-11-02T20:09:19.862Z,13.70
2022-11-02T20:11:49.017Z,13.80
2022-11-02T20:14:36.830Z,13.70
2022-11-02T20:17:29.660Z,13.70
2022-11-02T20:20:04.034Z,13.70
2022-11-02T20:22:33.501Z,13.60
2022-11-02T20:25:01.423Z,13.60
2022-11-02T20:30:03.855Z,13.60
2022-11-02T20:32:31.078Z,13.50
2022-11-02T20:35:00.042Z,13.50
2022-11-02T20:37:33.284Z,13.40
2022-11-02T20:40:05.049Z,13.40
2022-11-02T20:42:36.300Z,13.40
2022-11-02T20:45:06.280Z,13.30
2022-11-02T20:47:34.574Z,13.30
2022-11-02T20:50:01.636Z,13.30
2022-11-02T20:52:28.853Z,13.30
2022-11-02T20:55:00.585Z,13.30
2022-11-02T20:57:33.540Z,13.20
2022-11-02T21:00:02.741Z,13.20
2022-11-02T21:02:29.947Z,13.20
2022-11-02T21:04:57.227Z,13.10
2022-11-02T21:07:24.696Z,13.10
2022-11-02T21:09:51.949Z,13.10
2022-11-02T21:12:37.608Z,13.10
2022-11-02T21:15:06.499Z,13.10
2022-11-02T21:17:34.785Z,13.10
2022-11-02T21:20:28.542Z,13.00
2022-11-02T21:22:50.720Z,13.00
2022-11-02T21:25:18.459Z,13.00
2022-11-02T21:27:45.568Z,12.90
2022-11-02T21:30:14.341Z,12.90
2022-11-02T21:32:41.409Z,12.80
2022-11-02T21:35:09.208Z,12.80
2022-11-02T21:37:36.398Z,12.80
2022-11-02T21:40:04.558Z,12.80
2022-11-02T21:42:31.787Z,12.70
2022-11-02T21:44:59.968Z,12.70
2022-11-02T21:47:34.148Z,12.60
2022-11-02T21:50:02.858Z,12.60
2022-11-02T21:52:30.016Z,12.60
2022-11-02T21:54:57.799Z,12.50
2022-11-02T21:57:24.936Z,12.50
2022-11-02T21:59:52.826Z,12.50
2022-11-02T22:02:20.075Z,12.40
2022-11-02T22:04:53.172Z,12.40
2022-11-02T22:07:23.683Z,12.40
2022-11-02T22:09:51.236Z,12.40
2022-11-02T22:12:47.415Z,12.40
2022-11-02T22:15:15.045Z,12.40
2022-11-02T22:17:49.526Z,12.30
2022-11-02T22:20:17.257Z,12.30
2022-11-02T22:22:45.200Z,12.30
2022-11-02T22:25:12.548Z,12.30
2022-11-02T22:27:39.688Z,12.30
2022-11-02T22:30:07.250Z,12.30
2022-11-02T22:32:34.464Z,12.30
2022-11-02T22:35:01.678Z,12.20
2022-11-02T22:38:04.220Z,12.20
2022-11-02T22:40:31.310Z,12.20
2022-11-02T22:42:58.431Z,12.10
2022-11-02T22:45:25.535Z,12.10
2022-11-02T22:47:52.725Z,12.10
2022-11-02T22:50:22.456Z,12.10
2022-11-02T22:52:53.337Z,12.00
2022-11-02T22:55:20.448Z,12.00
2022-11-02T22:57:47.544Z,12.00
2022-11-02T23:00:15.213Z,12.00
2022-11-02T23:02:42.295Z,12.00
2022-11-02T23:05:09.940Z,12.00
2022-11-02T23:07:37.118Z,11.90
2022-11-02T23:10:24.603Z,11.90
2022-11-02T23:12:51.738Z,11.90
2022-11-02T23:15:18.850Z,11.90
2022-11-02T23:17:48.609Z,11.90
2022-11-02T23:20:15.852Z,11.80
2022-11-02T23:22:43.007Z,11.80
2022-11-02T23:25:14.225Z,11.80
2022-11-02T23:28:15.662Z,11.80
2022-11-02T23:31:02.408Z,11.80
2022-11-02T23:33:36.247Z,11.80
2022-11-02T23:36:15.929Z,11.70
2022-11-02T23:39:04.034Z,11.70
2022-11-02T23:41:33.129Z,11.70
2022-11-02T23:44:19.021Z,11.70
2022-11-02T23:46:51.033Z,11.70
2022-11-02T23:49:18.942Z,11.70
2022-11-02T23:52:04.669Z,11.70
2022-11-02T23:54:50.447Z,11.70
2022-11-02T23:57:18.751Z,11.60
2022-11-02T23:59:45.902Z,11.70
